• Join FlightAware (Why Join?)
  • Login
  • US Flag 
01:01AM EDT


 

Airport Tracker/Info


-or-


 

Live Flight TrackerFlight Track Log ✈ SKW4664 ✈ 06-Jun-2013 ✈ KMSP - KFSD

Flight Track Log - Related Links

Times and Time Zones

All times are in EDT time to prevent confusion due to time zone crossing. See the SKW4664 flight status page for this flight to view local times or setup timezone preferences in your user account.

Time Position Orientation Groundspeed Altitude Reporting Facility
EDT Latitude Longitude Course Direction KTS MPH feet Rate Location/Type
10:40AM 44.8833 -93.2833 235° Southwest 177 204 2,800  Level Minneapolis TRACON
10:41AM 44.8858 -93.3161 276° West 191 220 3,300 2,400 Climbing Minneapolis Center
10:42AM 44.8753 -93.4086 261° West 234 269 6,100 2,580 Climbing Minneapolis Center
10:43AM 44.6252 -93.7497 235° Southwest  Level FlightAware Approximate
10:43AM 44.8617 -93.5264 261° West 283 326 8,700  Level Minneapolis Center
10:44AM 44.5512 -93.8758 230° Southwest  Level FlightAware Approximate
10:44AM 44.8103 -93.6150 231° Southwest 296 341 11,300  Level Minneapolis Center
10:45AM 44.4801 -94.0066 235° Southwest  Level FlightAware Approximate
10:45AM 44.7433 -93.7075 224° Southwest 313 360 13,400  Level Minneapolis Center
10:46AM 44.4310 -94.1047 235° Southwest  Level FlightAware Approximate
10:46AM 44.6956 -93.8153 238° Southwest 333 383 14,800  Level Minneapolis Center
10:47AM 44.6514 -93.9486 245° Southwest 352 405 16,000 1,500 Climbing Minneapolis Center
10:48AM 44.6086 -94.0756 245° Southwest 360 414 17,900 960 Climbing Minneapolis Center
10:49AM 44.5656 -94.2061 245° Southwest 373 429 18,000  Climbing Minneapolis Center
10:50AM 44.5192 -94.3378 244° Southwest 390 449 18,000  Level Minneapolis Center
10:51AM 44.4731 -94.4744 245° Southwest 389 448 18,000  Level Minneapolis Center
10:52AM 44.4197 -94.6386 246° West 388 447 18,000  Level Minneapolis Center
10:53AM 44.3708 -94.7764 244° Southwest 392 451 18,000  Level Minneapolis Center
10:54AM 44.3233 -94.9139 244° Southwest 394 453 18,000  Level Minneapolis Center
10:55AM 44.2767 -95.0497 244° Southwest 391 450 18,000  Level Minneapolis Center
10:56AM 44.2281 -95.1856 243° Southwest 391 450 18,000  Level Minneapolis Center
10:57AM 44.1794 -95.3225 244° Southwest 392 451 18,000 -420 Level Minneapolis Center
10:58AM 44.1206 -95.4861 243° Southwest 393 452 17,200 -900 Descending Minneapolis Center
10:59AM 44.0703 -95.6292 244° Southwest 400 460 16,200 -1,020 Descending Minneapolis Center
11:00AM 44.0200 -95.7692 244° Southwest 403 464 15,100 -1,020 Descending Minneapolis Center
11:01AM 43.9714 -95.9042 243° Southwest 398 458 14,100 -1,260 Descending Minneapolis Center
11:02AM 43.9236 -96.0361 243° Southwest 389 448 12,600 -1,500 Descending Minneapolis Center
11:03AM 43.8794 -96.1553 243° Southwest 365 420 11,100 -1,500 Descending Minneapolis Center
11:04AM 43.8314 -96.2458 234° Southwest 318 366 9,600 -1,500 Descending Minneapolis Center
11:05AM 43.7717 -96.3197 222° Southwest 299 344 8,100 -1,680 Descending Minneapolis Center
11:06AM 43.7042 -96.4092 224° Southwest 286 329 6,200 -1,020 Descending Minneapolis Center
11:07AM 43.6519 -96.4794 224° Southwest 276 318 6,000 -120 Descending Minneapolis Center
11:08AM 43.6047 -96.5425 224° Southwest 257 296 6,000 -240 Level Minneapolis Center
11:10AM 43.5578 -96.6017 222° Southwest 242 278 5,600 -780 Descending Minneapolis Center
11:11AM 43.5092 -96.6619 222° Southwest 237 273 4,500 -960 Descending Minneapolis Center
11:12AM 43.4636 -96.7178 222° Southwest 229 264 3,700 -540 Descending Minneapolis Center
11:13AM 43.4114 -96.7836 222° Southwest 220 253 3,400 -180 Descending Minneapolis Center
11:14AM 43.4114 -96.8586 270° West 231 266 3,400  Level Minneapolis Center